createdAt,value
2023-05-05T00:00:30.845Z,12.40
2023-05-05T00:01:35.246Z,12.40
2023-05-05T00:02:37.061Z,12.40
2023-05-05T00:03:39.108Z,12.40
2023-05-05T00:04:41.140Z,12.40
2023-05-05T00:05:42.895Z,12.50
2023-05-05T00:06:44.721Z,12.40
2023-05-05T00:07:46.401Z,12.40
2023-05-05T00:08:48.094Z,12.40
2023-05-05T00:09:50.501Z,12.40
2023-05-05T00:10:53.669Z,12.50
2023-05-05T00:11:55.703Z,12.50
2023-05-05T00:12:57.523Z,12.50
2023-05-05T00:13:59.270Z,12.50
2023-05-05T00:15:01.241Z,12.50
2023-05-05T00:16:03.113Z,12.50
2023-05-05T00:17:05.250Z,12.50
2023-05-05T00:18:07.538Z,12.50
2023-05-05T00:19:09.397Z,12.50
2023-05-05T00:20:11.736Z,12.50
2023-05-05T00:21:13.524Z,12.50
2023-05-05T00:22:16.064Z,12.50
2023-05-05T00:23:19.035Z,12.40
2023-05-05T00:24:20.745Z,12.30
2023-05-05T00:25:22.511Z,12.50
2023-05-05T00:26:24.400Z,12.50
2023-05-05T00:27:26.497Z,12.50
2023-05-05T00:28:28.317Z,12.50
2023-05-05T00:29:30.586Z,12.50
2023-05-05T00:30:34.358Z,12.50
2023-05-05T00:31:36.186Z,12.50
2023-05-05T00:32:37.972Z,12.50
2023-05-05T00:33:39.712Z,12.50
2023-05-05T00:34:41.516Z,12.50
2023-05-05T00:35:44.417Z,12.50
2023-05-05T00:36:46.421Z,12.50
2023-05-05T00:37:49.134Z,12.50
2023-05-05T00:38:50.868Z,12.50
2023-05-05T00:39:52.876Z,12.40
2023-05-05T00:40:55.086Z,12.40
2023-05-05T00:41:56.853Z,12.40
2023-05-05T00:42:59.668Z,12.40
2023-05-05T00:44:01.468Z,12.40
2023-05-05T00:45:04.211Z,12.30
2023-05-05T00:46:26.801Z,12.30
2023-05-05T00:47:28.855Z,12.30
2023-05-05T00:48:31.072Z,12.30
2023-05-05T00:49:34.677Z,12.30
2023-05-05T00:50:37.325Z,12.30
2023-05-05T00:51:39.094Z,12.30
2023-05-05T00:52:40.949Z,12.30
2023-05-05T00:53:45.090Z,12.30
2023-05-05T00:54:47.068Z,12.30
2023-05-05T00:55:49.706Z,12.30
2023-05-05T00:56:52.026Z,12.20
2023-05-05T00:57:54.102Z,12.20
2023-05-05T00:58:56.431Z,12.20
2023-05-05T01:00:01.337Z,12.20
2023-05-05T01:01:03.380Z,12.20
2023-05-05T01:02:05.503Z,12.20
2023-05-05T01:03:07.482Z,12.20
2023-05-05T01:04:09.957Z,12.20
2023-05-05T01:05:13.268Z,12.20
2023-05-05T01:06:39.414Z,12.20
2023-05-05T01:07:48.406Z,12.20
2023-05-05T01:09:21.123Z,12.20
2023-05-05T01:10:27.719Z,12.20
2023-05-05T01:11:42.020Z,12.10
2023-05-05T01:12:53.832Z,12.20
2023-05-05T01:14:20.566Z,12.20
2023-05-05T01:15:46.553Z,12.20
2023-05-05T01:16:58.912Z,12.20
2023-05-05T01:18:21.314Z,12.20
2023-05-05T01:19:34.911Z,12.20
2023-05-05T01:21:10.483Z,12.20
2023-05-05T01:22:15.039Z,12.20
2023-05-05T01:23:35.054Z,12.20
2023-05-05T01:25:00.436Z,12.10
2023-05-05T01:26:02.632Z,12.10
2023-05-05T01:27:29.302Z,12.10
2023-05-05T01:28:42.778Z,12.10
2023-05-05T01:29:53.475Z,12.00
2023-05-05T01:31:16.804Z,12.00
2023-05-05T01:32:33.753Z,12.00
2023-05-05T01:33:42.995Z,12.00
2023-05-05T01:34:50.806Z,11.90
2023-05-05T01:36:02.552Z,11.90
2023-05-05T01:37:12.046Z,11.90
2023-05-05T01:38:18.314Z,11.90
2023-05-05T01:39:24.641Z,11.90
2023-05-05T01:40:30.273Z,11.90
2023-05-05T01:41:41.546Z,11.80
2023-05-05T01:42:44.422Z,11.90
2023-05-05T01:43:50.447Z,11.80
2023-05-05T01:44:53.344Z,11.80
2023-05-05T01:45:56.515Z,11.70
2023-05-05T01:47:00.626Z,11.70
2023-05-05T01:48:05.300Z,11.70
2023-05-05T01:49:08.477Z,11.70
2023-05-05T01:50:11.521Z,11.70
2023-05-05T01:51:14.513Z,11.70
2023-05-05T01:52:17.566Z,11.60
2023-05-05T01:53:22.534Z,11.60
2023-05-05T01:54:25.879Z,11.60
2023-05-05T01:55:29.655Z,11.60
2023-05-05T01:56:32.879Z,11.60
2023-05-05T01:57:35.957Z,11.60
2023-05-05T01:58:38.686Z,11.50
2023-05-05T01:59:40.884Z,11.60
2023-05-05T02:00:44.042Z,11.50
2023-05-05T02:01:47.249Z,11.50
2023-05-05T02:02:50.479Z,11.50
2023-05-05T02:03:56.757Z,11.50
2023-05-05T02:05:00.196Z,11.50
2023-05-05T02:06:03.723Z,11.50
2023-05-05T02:07:07.320Z,11.50
2023-05-05T02:08:09.674Z,11.50
2023-05-05T02:09:13.569Z,11.60
2023-05-05T02:10:15.653Z,11.60
2023-05-05T02:11:18.450Z,11.60
2023-05-05T02:12:21.461Z,11.60
2023-05-05T02:13:26.086Z,11.60
2023-05-05T02:14:30.405Z,11.60
2023-05-05T02:15:33.788Z,11.60
2023-05-05T02:16:37.962Z,11.60
2023-05-05T02:17:42.958Z,11.60
2023-05-05T02:18:47.040Z,11.60
2023-05-05T02:19:52.388Z,11.60
2023-05-05T02:20:54.395Z,11.60
2023-05-05T02:21:57.088Z,11.60
2023-05-05T02:22:59.184Z,11.60
2023-05-05T02:24:01.382Z,11.60
2023-05-05T02:25:03.804Z,11.60
2023-05-05T02:26:07.994Z,11.50
2023-05-05T02:27:11.695Z,11.50
2023-05-05T02:28:21.104Z,11.50
2023-05-05T02:29:29.230Z,11.50
2023-05-05T02:30:34.633Z,11.50
2023-05-05T02:31:53.503Z,11.50
2023-05-05T02:33:00.147Z,11.50
2023-05-05T02:34:03.549Z,11.50
2023-05-05T02:35:15.229Z,11.50
2023-05-05T02:36:21.851Z,11.50
2023-05-05T02:37:27.443Z,11.40
2023-05-05T02:38:30.558Z,11.40
2023-05-05T02:39:36.950Z,11.50
2023-05-05T02:40:41.957Z,11.40
2023-05-05T02:41:48.264Z,11.40
2023-05-05T02:42:54.381Z,11.40
2023-05-05T02:43:59.659Z,11.40
2023-05-05T02:45:07.895Z,11.40
2023-05-05T02:46:09.680Z,11.40
2023-05-05T02:47:11.465Z,11.30
2023-05-05T02:48:13.387Z,11.30
2023-05-05T02:49:15.479Z,11.30
2023-05-05T02:50:17.282Z,11.30
2023-05-05T02:51:19.017Z,11.20
2023-05-05T02:52:20.728Z,11.20
2023-05-05T02:53:25.851Z,11.20
2023-05-05T02:54:28.237Z,11.20
2023-05-05T02:55:39.129Z,11.20
2023-05-05T02:56:48.912Z,11.20
2023-05-05T02:58:02.453Z,11.20
2023-05-05T02:59:29.966Z,11.20
2023-05-05T03:00:45.983Z,11.10
2023-05-05T03:02:13.861Z,11.20
2023-05-05T03:03:26.049Z,11.10
2023-05-05T03:04:33.948Z,11.10
2023-05-05T03:05:43.918Z,11.10
2023-05-05T03:06:49.165Z,11.10
2023-05-05T03:08:04.486Z,11.10
2023-05-05T03:09:22.822Z,11.10
2023-05-05T03:10:49.286Z,11.10
2023-05-05T03:12:00.791Z,11.00
2023-05-05T03:13:03.146Z,11.00
2023-05-05T03:14:10.039Z,11.00
2023-05-05T03:15:13.315Z,11.00
2023-05-05T03:16:18.308Z,11.00
2023-05-05T03:17:21.549Z,11.00
2023-05-05T03:18:25.080Z,11.00
2023-05-05T03:19:28.370Z,11.00
2023-05-05T03:20:31.528Z,11.00
2023-05-05T03:21:33.458Z,11.00
2023-05-05T03:22:37.257Z,11.00
2023-05-05T03:23:39.181Z,11.00
2023-05-05T03:24:41.209Z,11.00
2023-05-05T03:25:45.097Z,11.10
2023-05-05T03:26:48.552Z,11.10
2023-05-05T03:27:50.997Z,11.10
2023-05-05T03:28:52.730Z,11.10
2023-05-05T03:29:54.517Z,11.00
2023-05-05T03:30:56.790Z,11.10
2023-05-05T03:31:59.141Z,11.10
2023-05-05T03:33:01.251Z,11.10
2023-05-05T03:34:03.215Z,11.10
2023-05-05T03:35:05.380Z,11.10
2023-05-05T03:36:08.163Z,11.10
2023-05-05T03:37:09.901Z,11.10
2023-05-05T03:38:11.743Z,11.10
2023-05-05T03:39:13.449Z,11.10
2023-05-05T03:40:15.319Z,11.10
2023-05-05T03:41:16.989Z,11.10
2023-05-05T03:42:18.673Z,11.20
2023-05-05T03:43:20.517Z,11.10
2023-05-05T03:44:22.902Z,11.10
2023-05-05T03:45:25.643Z,11.10
2023-05-05T03:46:27.405Z,11.20
2023-05-05T03:47:29.111Z,11.10
2023-05-05T03:48:31.581Z,11.10
2023-05-05T03:49:33.281Z,11.20
2023-05-05T03:50:35.076Z,11.20
2023-05-05T03:51:37.168Z,11.20
2023-05-05T03:52:39.092Z,11.20
2023-05-05T03:53:40.877Z,11.20
2023-05-05T03:54:43.104Z,11.20
2023-05-05T03:55:44.852Z,11.20
2023-05-05T03:56:46.607Z,11.20
2023-05-05T03:57:48.274Z,11.30
2023-05-05T03:58:49.969Z,11.20
2023-05-05T03:59:51.881Z,11.20
2023-05-05T04:00:53.742Z,11.20
2023-05-05T04:01:55.720Z,11.20
2023-05-05T04:02:57.674Z,11.20
2023-05-05T04:03:59.473Z,11.30
2023-05-05T04:05:01.282Z,11.30
2023-05-05T04:06:03.140Z,11.30
2023-05-05T04:07:04.808Z,11.40
2023-05-05T04:08:06.651Z,11.30
2023-05-05T04:09:08.329Z,11.30
2023-05-05T04:10:10.468Z,11.40
2023-05-05T04:11:12.312Z,11.40
2023-05-05T04:12:14.190Z,11.40
2023-05-05T04:13:16.560Z,11.40
2023-05-05T04:14:18.430Z,11.40
2023-05-05T04:15:20.212Z,11.40
2023-05-05T04:16:21.954Z,11.40
2023-05-05T04:17:23.751Z,11.40
2023-05-05T04:18:26.023Z,11.40
2023-05-05T04:19:27.841Z,11.40
2023-05-05T04:20:29.560Z,11.40
2023-05-05T04:21:31.560Z,11.40
2023-05-05T04:22:33.275Z,11.40
2023-05-05T04:23:35.034Z,11.40
2023-05-05T04:24:37.273Z,11.50
2023-05-05T04:25:39.297Z,11.50
2023-05-05T04:26:41.553Z,11.50
2023-05-05T04:27:43.292Z,11.50
2023-05-05T04:28:45.036Z,11.50
2023-05-05T04:29:46.755Z,11.50
2023-05-05T04:30:48.482Z,11.50
2023-05-05T04:31:50.848Z,11.60
2023-05-05T04:32:53.239Z,11.60
2023-05-05T04:33:55.141Z,11.60
2023-05-05T04:34:56.882Z,11.60
2023-05-05T04:35:58.593Z,11.60
2023-05-05T04:37:00.528Z,11.60
2023-05-05T04:38:02.267Z,11.70
2023-05-05T04:39:04.163Z,11.70
2023-05-05T04:40:06.924Z,11.70
2023-05-05T04:41:08.845Z,11.70
2023-05-05T04:42:10.708Z,11.70
2023-05-05T04:43:12.413Z,11.60
2023-05-05T04:44:14.112Z,11.80
2023-05-05T04:45:15.950Z,11.70
2023-05-05T04:46:17.669Z,11.70
2023-05-05T04:47:19.429Z,11.80
2023-05-05T04:48:21.181Z,11.80
2023-05-05T04:49:22.879Z,11.80
2023-05-05T04:50:24.656Z,11.80
2023-05-05T04:51:27.639Z,11.80
2023-05-05T04:52:29.409Z,11.80
2023-05-05T04:53:31.183Z,11.90
2023-05-05T04:54:36.639Z,11.90
2023-05-05T04:55:39.501Z,11.90
2023-05-05T04:56:41.218Z,12.00
2023-05-05T04:57:42.904Z,12.00
2023-05-05T04:58:44.683Z,12.00
2023-05-05T04:59:46.363Z,12.00
2023-05-05T05:00:48.080Z,12.10
2023-05-05T05:01:49.806Z,12.10
2023-05-05T05:02:52.562Z,12.20
2023-05-05T05:03:54.597Z,12.20
2023-05-05T05:04:56.344Z,12.20
2023-05-05T05:05:58.107Z,12.30
2023-05-05T05:07:01.359Z,12.30
2023-05-05T05:08:03.066Z,12.30
2023-05-05T05:09:04.857Z,12.40
2023-05-05T05:10:07.472Z,12.40
2023-05-05T05:11:09.492Z,12.50
2023-05-05T05:12:11.177Z,12.50
2023-05-05T05:13:13.164Z,12.50
2023-05-05T05:14:15.069Z,12.60
2023-05-05T05:15:16.830Z,12.60
2023-05-05T05:16:18.581Z,12.70
2023-05-05T05:17:21.164Z,12.70
2023-05-05T05:18:22.913Z,12.70
2023-05-05T05:19:24.583Z,12.80
2023-05-05T05:20:26.363Z,12.80
2023-05-05T05:21:28.107Z,12.90
2023-05-05T05:22:29.826Z,12.90
2023-05-05T05:23:31.618Z,13.00
2023-05-05T05:24:34.744Z,13.00
2023-05-05T05:25:36.517Z,13.00
2023-05-05T05:26:38.633Z,13.10
2023-05-05T05:27:41.639Z,13.10
2023-05-05T05:28:43.475Z,13.10
2023-05-05T05:29:45.248Z,13.10
2023-05-05T05:30:47.292Z,13.20
2023-05-05T05:31:50.169Z,13.20
2023-05-05T05:32:52.188Z,13.30
2023-05-05T05:33:53.929Z,13.30
2023-05-05T05:34:55.792Z,13.30
2023-05-05T05:35:57.550Z,13.30
2023-05-05T05:36:59.679Z,13.40
2023-05-05T05:38:01.441Z,13.40
2023-05-05T05:39:03.253Z,13.40
2023-05-05T05:40:05.887Z,13.60
2023-05-05T05:41:07.918Z,13.60
2023-05-05T05:42:09.685Z,13.70
2023-05-05T05:43:11.369Z,13.70
2023-05-05T05:44:13.107Z,13.70
2023-05-05T05:45:14.956Z,13.80
2023-05-05T05:46:16.760Z,13.90
2023-05-05T05:47:18.538Z,13.90
2023-05-05T05:48:21.394Z,13.90
2023-05-05T05:49:23.169Z,14.00
2023-05-05T05:50:27.239Z,14.00
2023-05-05T05:51:29.159Z,14.10
2023-05-05T05:52:31.290Z,14.10
2023-05-05T05:53:33.331Z,14.10
2023-05-05T05:54:35.666Z,14.20
2023-05-05T05:55:37.356Z,14.30
2023-05-05T05:56:39.052Z,14.30
2023-05-05T05:57:40.851Z,14.30
2023-05-05T05:58:42.658Z,14.40
2023-05-05T05:59:44.497Z,14.50
2023-05-05T06:00:46.610Z,14.60
2023-05-05T06:01:48.353Z,14.60
2023-05-05T06:02:51.634Z,14.70
2023-05-05T06:03:53.788Z,14.80
2023-05-05T06:04:55.747Z,14.90
2023-05-05T06:05:58.967Z,15.00
2023-05-05T06:07:00.641Z,15.10
2023-05-05T06:08:02.432Z,15.20
2023-05-05T06:09:04.146Z,15.20
2023-05-05T06:10:22.955Z,15.30
2023-05-05T06:11:28.569Z,15.30
2023-05-05T06:12:30.368Z,15.40
2023-05-05T06:13:32.395Z,15.40
2023-05-05T06:14:34.106Z,15.40
2023-05-05T06:15:35.951Z,15.50
2023-05-05T06:16:37.737Z,15.50
2023-05-05T06:17:39.439Z,15.50
2023-05-05T06:18:41.184Z,15.50
2023-05-05T06:19:43.382Z,15.50
2023-05-05T06:20:45.175Z,15.50
2023-05-05T06:21:47.021Z,15.50
2023-05-05T06:22:48.744Z,15.50
2023-05-05T06:23:50.971Z,15.50
2023-05-05T06:24:52.696Z,15.60
2023-05-05T06:25:55.672Z,15.60
2023-05-05T06:26:59.275Z,15.60
2023-05-05T06:28:01.012Z,15.60
2023-05-05T06:29:02.785Z,15.60
2023-05-05T06:30:04.994Z,15.60
2023-05-05T06:31:06.744Z,15.60
2023-05-05T06:32:08.505Z,15.70
2023-05-05T06:33:10.266Z,15.70
2023-05-05T06:34:12.253Z,15.70
2023-05-05T06:35:14.005Z,15.70
2023-05-05T06:36:15.729Z,15.80
2023-05-05T06:37:17.562Z,15.80
2023-05-05T06:38:19.391Z,15.90
2023-05-05T06:39:21.381Z,15.90
2023-05-05T06:40:23.215Z,15.90
2023-05-05T06:41:25.114Z,15.90
2023-05-05T06:42:26.948Z,16.00
2023-05-05T06:43:31.654Z,16.10
2023-05-05T06:44:34.609Z,16.10
2023-05-05T06:45:36.412Z,16.20
2023-05-05T06:46:38.290Z,16.20
2023-05-05T06:47:40.048Z,16.30
2023-05-05T06:48:42.075Z,16.40
2023-05-05T06:49:43.807Z,16.40
2023-05-05T06:50:45.634Z,16.50
2023-05-05T06:51:47.391Z,16.60
2023-05-05T06:52:49.226Z,16.60
2023-05-05T06:53:51.250Z,16.70
2023-05-05T06:54:52.945Z,16.70
2023-05-05T06:55:54.745Z,16.70
2023-05-05T06:56:58.177Z,16.80
2023-05-05T06:58:01.240Z,16.90
2023-05-05T06:59:02.957Z,16.90
2023-05-05T07:00:07.260Z,17.00
2023-05-05T07:01:09.690Z,17.00
2023-05-05T07:02:11.445Z,17.10
2023-05-05T07:03:13.597Z,17.10
2023-05-05T07:04:16.326Z,17.20
2023-05-05T07:05:18.389Z,17.30
2023-05-05T07:06:20.395Z,17.30
2023-05-05T07:07:22.200Z,17.30
2023-05-05T07:08:25.438Z,17.40
2023-05-05T07:09:27.186Z,17.40
2023-05-05T07:10:29.001Z,17.50
2023-05-05T07:11:30.860Z,17.50
2023-05-05T07:12:32.664Z,17.50
2023-05-05T07:13:34.387Z,17.60
2023-05-05T07:14:36.258Z,17.60
2023-05-05T07:15:43.935Z,17.60
2023-05-05T07:16:46.394Z,17.60
2023-05-05T07:17:48.775Z,17.70
2023-05-05T07:18:50.671Z,17.70
2023-05-05T07:19:54.999Z,17.80
2023-05-05T07:20:56.774Z,17.80
2023-05-05T07:21:58.461Z,17.90
2023-05-05T07:23:00.287Z,17.90
2023-05-05T07:24:03.254Z,18.00
2023-05-05T07:25:06.307Z,18.10
2023-05-05T07:26:08.141Z,18.10
2023-05-05T07:27:09.918Z,18.20
2023-05-05T07:28:11.619Z,18.30
2023-05-05T07:29:13.674Z,18.30
2023-05-05T07:30:18.454Z,18.40
2023-05-05T07:31:21.975Z,18.40
2023-05-05T07:32:23.906Z,18.40
2023-05-05T07:33:26.330Z,18.40
2023-05-05T07:34:28.244Z,18.40
2023-05-05T07:35:30.212Z,18.40
2023-05-05T07:36:32.232Z,18.50
2023-05-05T07:37:34.187Z,18.50
2023-05-05T07:38:36.183Z,18.60
2023-05-05T07:39:37.909Z,18.60
2023-05-05T07:40:39.700Z,18.70
2023-05-05T07:41:42.398Z,18.70
2023-05-05T07:42:44.159Z,18.70
2023-05-05T07:43:46.070Z,18.80
2023-05-05T07:44:47.901Z,18.80
2023-05-05T07:45:49.909Z,18.80
2023-05-05T07:46:51.662Z,18.80
2023-05-05T07:47:53.429Z,18.90
2023-05-05T07:48:55.202Z,18.90
2023-05-05T07:49:57.258Z,18.90
2023-05-05T07:50:58.979Z,18.90
2023-05-05T07:52:00.716Z,19.00
2023-05-05T07:53:13.819Z,19.00
2023-05-05T07:54:17.764Z,19.00
2023-05-05T07:55:19.771Z,19.10
2023-05-05T07:56:21.867Z,19.10
2023-05-05T07:57:23.965Z,19.10
2023-05-05T07:58:25.986Z,19.10
2023-05-05T07:59:27.736Z,19.10
2023-05-05T08:00:30.047Z,19.20
2023-05-05T08:01:31.890Z,19.20
2023-05-05T08:02:33.912Z,19.20
2023-05-05T08:03:35.921Z,19.20
2023-05-05T08:04:37.947Z,19.20
2023-05-05T08:05:39.794Z,19.20
2023-05-05T08:06:41.469Z,19.20
2023-05-05T08:07:43.320Z,19.20
2023-05-05T08:08:45.038Z,19.20
2023-05-05T08:09:46.721Z,19.20
2023-05-05T08:10:48.500Z,19.20
2023-05-05T08:11:50.412Z,19.20
2023-05-05T08:12:52.489Z,19.10
2023-05-05T08:13:54.219Z,19.10
2023-05-05T08:14:55.980Z,19.10
2023-05-05T08:15:57.824Z,19.00
2023-05-05T08:16:59.668Z,19.00
2023-05-05T08:18:01.612Z,19.00
2023-05-05T08:19:05.078Z,19.00
2023-05-05T08:20:11.950Z,19.00
2023-05-05T08:21:13.755Z,18.90
2023-05-05T08:22:15.711Z,18.90
2023-05-05T08:23:17.547Z,18.80
2023-05-05T08:24:19.318Z,18.80
2023-05-05T08:25:21.243Z,18.80
2023-05-05T08:26:23.008Z,18.70
2023-05-05T08:27:24.745Z,18.60
2023-05-05T08:28:26.490Z,18.60
2023-05-05T08:29:28.237Z,18.50
2023-05-05T08:30:30.146Z,18.50
2023-05-05T08:31:39.937Z,18.50
2023-05-05T08:32:41.788Z,18.40
2023-05-05T08:33:43.565Z,18.40
2023-05-05T08:34:45.325Z,18.40
2023-05-05T08:35:49.170Z,18.40
2023-05-05T08:36:51.104Z,18.40
2023-05-05T08:37:52.988Z,18.40
2023-05-05T08:38:55.093Z,18.40
2023-05-05T08:39:58.100Z,18.40
2023-05-05T08:40:59.815Z,18.40
2023-05-05T08:42:02.335Z,18.50
2023-05-05T08:43:05.072Z,18.50
2023-05-05T08:44:08.443Z,18.50
2023-05-05T08:45:11.521Z,18.50
2023-05-05T08:46:14.085Z,18.50
2023-05-05T08:47:16.285Z,18.40
2023-05-05T08:48:22.270Z,18.50
2023-05-05T08:49:25.735Z,18.50
2023-05-05T08:50:29.062Z,18.50
2023-05-05T08:51:37.689Z,18.50
2023-05-05T08:52:44.192Z,18.60
2023-05-05T08:54:02.545Z,18.60
2023-05-05T08:55:28.112Z,18.70
2023-05-05T08:56:37.302Z,18.70
2023-05-05T08:57:52.002Z,18.70
2023-05-05T08:58:54.649Z,18.80
2023-05-05T08:59:57.365Z,18.80
2023-05-05T09:01:02.232Z,18.80
2023-05-05T09:02:05.227Z,18.90
2023-05-05T09:03:08.033Z,18.90
2023-05-05T09:04:11.046Z,18.90
2023-05-05T09:05:13.247Z,18.90
2023-05-05T09:06:15.470Z,19.00
2023-05-05T09:07:17.386Z,19.00
2023-05-05T09:08:19.846Z,19.00
2023-05-05T09:09:21.806Z,19.00
2023-05-05T09:10:25.968Z,19.00
2023-05-05T09:11:28.284Z,19.00
2023-05-05T09:12:31.786Z,19.00
2023-05-05T09:13:33.886Z,19.10
2023-05-05T09:14:35.655Z,19.10
2023-05-05T09:15:38.988Z,19.10
2023-05-05T09:16:44.237Z,19.20
2023-05-05T09:17:46.586Z,19.20
2023-05-05T09:18:48.330Z,19.20
2023-05-05T09:20:10.338Z,19.30
2023-05-05T09:21:25.971Z,19.30
2023-05-05T09:22:47.219Z,19.40
2023-05-05T09:24:12.125Z,19.40
2023-05-05T09:25:16.378Z,19.40
2023-05-05T09:26:18.085Z,19.50
2023-05-05T09:27:23.466Z,19.50
2023-05-05T09:28:26.051Z,19.60
2023-05-05T09:29:27.884Z,19.50
2023-05-05T09:30:29.698Z,19.60
2023-05-05T09:31:32.974Z,19.60
2023-05-05T09:32:44.993Z,19.60
2023-05-05T09:33:46.776Z,19.60
2023-05-05T09:35:01.660Z,19.70
2023-05-05T09:36:03.564Z,19.70
2023-05-05T09:37:06.174Z,19.80
2023-05-05T09:38:13.902Z,19.80
2023-05-05T09:39:20.316Z,19.80
2023-05-05T09:40:22.246Z,19.90
2023-05-05T09:41:40.401Z,19.90
2023-05-05T09:42:42.446Z,20.00
2023-05-05T09:43:51.985Z,20.00
2023-05-05T09:44:54.343Z,20.00
2023-05-05T09:46:09.601Z,20.10
2023-05-05T09:47:25.988Z,20.10
2023-05-05T09:48:32.371Z,20.20
2023-05-05T09:49:36.189Z,20.20
2023-05-05T09:50:44.561Z,20.20
2023-05-05T09:51:47.182Z,20.30
2023-05-05T09:52:55.086Z,20.30
2023-05-05T09:53:57.740Z,20.40
2023-05-05T09:54:59.624Z,20.40
2023-05-05T09:56:01.406Z,20.60
2023-05-05T09:57:03.109Z,20.70
2023-05-05T09:58:23.526Z,20.80
2023-05-05T09:59:25.741Z,21.00
2023-05-05T10:00:40.013Z,21.10
2023-05-05T10:01:43.752Z,21.20
2023-05-05T10:02:45.774Z,21.30
2023-05-05T10:03:54.016Z,21.30
2023-05-05T10:05:12.725Z,21.40
2023-05-05T10:06:14.579Z,21.50
2023-05-05T10:07:25.605Z,21.60
2023-05-05T10:08:30.801Z,21.70
2023-05-05T10:09:32.644Z,21.70
2023-05-05T10:10:34.975Z,21.70
2023-05-05T10:11:36.900Z,21.80
2023-05-05T10:12:39.088Z,21.80
2023-05-05T10:13:43.007Z,21.90
2023-05-05T10:14:44.731Z,21.90
2023-05-05T10:15:48.774Z,21.90
2023-05-05T10:16:52.441Z,21.90
2023-05-05T10:18:06.979Z,21.90
2023-05-05T10:19:14.208Z,21.90
2023-05-05T10:20:16.131Z,21.90
2023-05-05T10:21:21.443Z,22.00
2023-05-05T10:22:24.050Z,22.00
2023-05-05T10:23:53.876Z,22.00
2023-05-05T10:25:16.009Z,22.10
2023-05-05T10:26:19.841Z,22.10
2023-05-05T10:27:24.079Z,22.10
2023-05-05T10:28:43.213Z,22.10
2023-05-05T10:30:04.441Z,22.10
2023-05-05T10:31:23.807Z,22.00
2023-05-05T10:33:03.999Z,22.00
2023-05-05T10:34:45.795Z,21.90
2023-05-05T10:35:52.564Z,21.90
2023-05-05T10:36:56.809Z,21.80
2023-05-05T10:38:00.066Z,21.70
2023-05-05T10:39:03.069Z,21.60
2023-05-05T10:40:05.893Z,21.60
2023-05-05T10:41:10.135Z,21.60
2023-05-05T10:42:13.715Z,21.60
2023-05-05T10:43:15.748Z,21.70
2023-05-05T10:44:18.095Z,21.70
2023-05-05T10:45:20.019Z,21.70
2023-05-05T10:46:22.268Z,21.80
2023-05-05T10:47:26.111Z,21.80
2023-05-05T10:48:37.523Z,21.90
2023-05-05T10:49:52.203Z,21.80
2023-05-05T10:51:01.752Z,21.90
2023-05-05T10:52:19.338Z,21.70
2023-05-05T10:53:32.621Z,21.80
2023-05-05T10:54:45.100Z,21.80
2023-05-05T10:56:11.185Z,21.80
2023-05-05T10:57:16.627Z,21.70
2023-05-05T10:58:55.471Z,21.60
2023-05-05T11:00:00.845Z,21.60
2023-05-05T11:01:03.969Z,21.50
2023-05-05T11:02:25.090Z,21.50
2023-05-05T11:03:27.156Z,21.40
2023-05-05T11:04:28.975Z,21.40
2023-05-05T11:05:30.968Z,21.30
2023-05-05T11:06:32.841Z,21.30
2023-05-05T11:07:35.136Z,21.30
2023-05-05T11:08:38.121Z,21.20
2023-05-05T11:09:55.856Z,21.20
2023-05-05T11:10:57.640Z,21.30
2023-05-05T11:12:04.371Z,21.30
2023-05-05T11:13:08.966Z,21.30
2023-05-05T11:14:22.300Z,21.30
2023-05-05T11:15:30.298Z,21.30
2023-05-05T11:16:45.816Z,21.30
2023-05-05T11:17:48.353Z,21.30
2023-05-05T11:18:50.375Z,21.30
2023-05-05T11:19:52.507Z,21.30
2023-05-05T11:21:00.113Z,21.40
2023-05-05T11:22:02.411Z,21.40
2023-05-05T11:23:04.229Z,21.40
2023-05-05T11:24:29.977Z,21.40
2023-05-05T11:25:38.864Z,21.40
2023-05-05T11:26:51.600Z,21.40
2023-05-05T11:28:09.353Z,21.40
2023-05-05T11:29:11.170Z,21.40
2023-05-05T11:30:13.578Z,21.40
2023-05-05T11:31:16.064Z,21.50
2023-05-05T11:32:17.805Z,21.50
2023-05-05T11:33:31.621Z,21.60
2023-05-05T11:34:33.427Z,21.60
2023-05-05T11:35:54.561Z,21.70
2023-05-05T11:37:08.577Z,21.80
2023-05-05T11:38:10.481Z,21.90
2023-05-05T11:39:28.620Z,22.00
2023-05-05T11:40:34.743Z,22.00
2023-05-05T11:41:57.764Z,22.10
2023-05-05T11:43:07.278Z,22.20
2023-05-05T11:44:15.670Z,22.30
2023-05-05T11:45:24.888Z,22.40
2023-05-05T11:46:26.727Z,22.50
2023-05-05T11:47:30.369Z,22.50
2023-05-05T11:48:32.143Z,22.60
2023-05-05T11:49:38.605Z,22.80
2023-05-05T11:50:40.684Z,22.90
2023-05-05T11:51:43.506Z,23.00
2023-05-05T11:52:45.845Z,23.20
2023-05-05T11:53:49.071Z,23.20
2023-05-05T11:54:51.348Z,23.30
2023-05-05T11:56:07.033Z,23.50
2023-05-05T11:57:09.150Z,23.60
2023-05-05T11:58:20.655Z,23.70
2023-05-05T11:59:23.028Z,23.70
2023-05-05T12:00:34.081Z,23.80
2023-05-05T12:01:40.905Z,24.00
2023-05-05T12:02:42.894Z,24.10
2023-05-05T12:03:45.797Z,24.10
2023-05-05T12:04:48.429Z,24.10
2023-05-05T12:05:54.788Z,24.00
2023-05-05T12:06:57.797Z,24.00
2023-05-05T12:07:59.831Z,23.90
2023-05-05T12:09:02.144Z,23.90
2023-05-05T12:10:04.098Z,23.90
2023-05-05T12:11:08.126Z,24.00
2023-05-05T12:12:10.128Z,24.00
2023-05-05T12:13:21.492Z,24.00
2023-05-05T12:14:24.603Z,23.90
2023-05-05T12:15:32.804Z,23.90
2023-05-05T12:16:34.536Z,24.00
2023-05-05T12:17:42.460Z,24.00
2023-05-05T12:18:44.557Z,24.00
2023-05-05T12:19:48.073Z,24.10
2023-05-05T12:20:49.940Z,24.20
2023-05-05T12:21:54.142Z,24.30
2023-05-05T12:23:03.974Z,24.40
2023-05-05T12:24:06.315Z,24.30
2023-05-05T12:25:08.997Z,24.20
2023-05-05T12:26:24.909Z,24.20
2023-05-05T12:27:28.037Z,24.10
2023-05-05T12:28:48.232Z,24.10
2023-05-05T12:29:51.476Z,24.00
2023-05-05T12:30:59.523Z,24.00
2023-05-05T12:32:01.337Z,23.90
2023-05-05T12:33:07.936Z,23.90
2023-05-05T12:34:10.484Z,23.80
2023-05-05T12:35:13.417Z,23.80
2023-05-05T12:36:15.609Z,23.70
2023-05-05T12:37:19.283Z,23.70
2023-05-05T12:38:21.160Z,23.70
2023-05-05T12:39:22.897Z,23.70
2023-05-05T12:40:45.272Z,23.60
2023-05-05T12:41:47.301Z,23.70
2023-05-05T12:42:49.164Z,23.60
2023-05-05T12:43:58.281Z,23.60
2023-05-05T12:45:00.179Z,23.60
2023-05-05T12:46:08.604Z,23.60
2023-05-05T12:47:12.380Z,23.60
2023-05-05T12:48:23.423Z,23.60
2023-05-05T12:49:25.297Z,23.60
2023-05-05T12:50:33.345Z,23.60
2023-05-05T12:51:36.640Z,23.60
2023-05-05T12:52:45.512Z,23.70
2023-05-05T12:53:48.959Z,23.60
2023-05-05T12:54:58.568Z,23.60
2023-05-05T12:56:00.370Z,23.70
2023-05-05T12:57:11.343Z,23.60
2023-05-05T12:58:13.136Z,23.70
2023-05-05T12:59:24.089Z,23.70
2023-05-05T13:00:26.343Z,23.80
2023-05-05T13:01:29.278Z,23.90
2023-05-05T13:02:35.155Z,24.00
2023-05-05T13:03:37.014Z,24.10
2023-05-05T13:04:53.341Z,24.20
2023-05-05T13:05:55.048Z,24.40
2023-05-05T13:07:11.148Z,24.50
2023-05-05T13:08:13.032Z,24.60
2023-05-05T13:09:30.447Z,24.60
2023-05-05T13:10:32.241Z,24.80
2023-05-05T13:11:38.014Z,24.80
2023-05-05T13:12:39.772Z,24.80
2023-05-05T13:13:42.196Z,24.90
2023-05-05T13:14:44.227Z,24.90
2023-05-05T13:15:46.057Z,24.80
2023-05-05T13:16:47.879Z,24.80
2023-05-05T13:17:49.698Z,24.80
2023-05-05T13:18:52.201Z,24.70
2023-05-05T13:19:53.922Z,24.60
2023-05-05T13:20:55.802Z,24.70
2023-05-05T13:21:58.612Z,24.60
2023-05-05T13:23:01.053Z,24.60
2023-05-05T13:24:19.064Z,24.60
2023-05-05T13:25:22.921Z,24.40
2023-05-05T13:26:25.131Z,24.40
2023-05-05T13:27:27.158Z,24.40
2023-05-05T13:28:29.185Z,24.40
2023-05-05T13:29:31.822Z,24.40
2023-05-05T13:30:33.636Z,24.30
2023-05-05T13:31:35.564Z,24.30
2023-05-05T13:32:37.385Z,24.30
2023-05-05T13:33:39.103Z,24.40
2023-05-05T13:34:41.510Z,24.30
2023-05-05T13:35:43.230Z,24.40
2023-05-05T13:36:44.950Z,24.30
2023-05-05T13:37:47.531Z,24.20
2023-05-05T13:38:49.269Z,24.20
2023-05-05T13:39:51.395Z,24.20
2023-05-05T13:40:53.612Z,24.20
2023-05-05T13:41:55.438Z,24.30
2023-05-05T13:42:57.169Z,24.20
2023-05-05T13:43:58.922Z,24.20
2023-05-05T13:45:01.007Z,24.30
2023-05-05T13:46:18.691Z,24.40
2023-05-05T13:47:21.219Z,24.40
2023-05-05T13:48:22.994Z,24.50
2023-05-05T13:49:24.852Z,24.60
2023-05-05T13:50:26.576Z,24.50
2023-05-05T13:51:28.571Z,24.40
2023-05-05T13:52:32.264Z,24.30
2023-05-05T13:53:39.905Z,24.30